sensor_id;sensor_type;location;lat;lon;timestamp;temperature;humidity
22491;DHT22;11412;50.802;4.350;2022-11-20T00:00:04;5.20;99.90
22491;DHT22;11412;50.802;4.350;2022-11-20T00:02:29;5.20;99.90
22491;DHT22;11412;50.802;4.350;2022-11-20T00:04:55;5.20;99.90
22491;DHT22;11412;50.802;4.350;2022-11-20T00:07:21;5.20;99.90
22491;DHT22;11412;50.802;4.350;2022-11-20T00:09:46;5.20;99.90
22491;DHT22;11412;50.802;4.350;2022-11-20T00:12:12;5.20;99.90
22491;DHT22;11412;50.802;4.350;2022-11-20T00:14:37;5.20;99.90
22491;DHT22;11412;50.802;4.350;2022-11-20T00:17:03;5.20;99.90
22491;DHT22;11412;50.802;4.350;2022-11-20T00:19:29;5.20;99.90
22491;DHT22;11412;50.802;4.350;2022-11-20T00:21:55;5.30;99.90
22491;DHT22;11412;50.802;4.350;2022-11-20T00:24:20;5.40;99.90
22491;DHT22;11412;50.802;4.350;2022-11-20T00:26:46;5.30;99.90
22491;DHT22;11412;50.802;4.350;2022-11-20T00:29:12;5.20;99.90
22491;DHT22;11412;50.802;4.350;2022-11-20T00:31:37;5.30;99.90
22491;DHT22;11412;50.802;4.350;2022-11-20T00:34:03;5.30;99.90
22491;DHT22;11412;50.802;4.350;2022-11-20T00:36:32;5.30;99.90
22491;DHT22;11412;50.802;4.350;2022-11-20T00:38:58;5.30;99.90
22491;DHT22;11412;50.802;4.350;2022-11-20T00:41:27;5.30;99.90
22491;DHT22;11412;50.802;4.350;2022-11-20T00:43:53;5.30;99.90
22491;DHT22;11412;50.802;4.350;2022-11-20T00:46:21;5.30;99.90
22491;DHT22;11412;50.802;4.350;2022-11-20T00:48:47;5.30;99.90
22491;DHT22;11412;50.802;4.350;2022-11-20T00:51:15;5.30;99.90
22491;DHT22;11412;50.802;4.350;2022-11-20T00:53:41;5.10;99.90
22491;DHT22;11412;50.802;4.350;2022-11-20T00:56:11;5.20;99.90
22491;DHT22;11412;50.802;4.350;2022-11-20T00:58:39;5.20;99.90
22491;DHT22;11412;50.802;4.350;2022-11-20T01:01:16;5.20;99.90
22491;DHT22;11412;50.802;4.350;2022-11-20T01:03:48;5.20;99.90
22491;DHT22;11412;50.802;4.350;2022-11-20T01:06:19;5.30;99.90
22491;DHT22;11412;50.802;4.350;2022-11-20T01:08:45;5.20;99.90
22491;DHT22;11412;50.802;4.350;2022-11-20T01:11:14;5.20;99.90
22491;DHT22;11412;50.802;4.350;2022-11-20T01:13:40;5.20;99.90
22491;DHT22;11412;50.802;4.350;2022-11-20T01:18:32;5.20;99.90
22491;DHT22;11412;50.802;4.350;2022-11-20T01:21:02;5.20;99.90
22491;DHT22;11412;50.802;4.350;2022-11-20T01:23:39;5.20;99.90
22491;DHT22;11412;50.802;4.350;2022-11-20T01:26:27;5.20;99.90
22491;DHT22;11412;50.802;4.350;2022-11-20T01:28:54;5.30;99.90
22491;DHT22;11412;50.802;4.350;2022-11-20T01:31:22;5.30;99.90
22491;DHT22;11412;50.802;4.350;2022-11-20T01:33:50;5.30;99.90
22491;DHT22;11412;50.802;4.350;2022-11-20T01:36:18;5.30;99.90
22491;DHT22;11412;50.802;4.350;2022-11-20T01:38:45;5.20;99.90
22491;DHT22;11412;50.802;4.350;2022-11-20T01:41:12;5.20;99.90
22491;DHT22;11412;50.802;4.350;2022-11-20T01:43:58;5.30;99.90
22491;DHT22;11412;50.802;4.350;2022-11-20T01:46:24;5.30;99.90
22491;DHT22;11412;50.802;4.350;2022-11-20T01:51:55;5.40;99.90
22491;DHT22;11412;50.802;4.350;2022-11-20T01:54:46;5.40;99.90
22491;DHT22;11412;50.802;4.350;2022-11-20T01:57:15;5.30;99.90
22491;DHT22;11412;50.802;4.350;2022-11-20T01:59:49;5.30;99.90
22491;DHT22;11412;50.802;4.350;2022-11-20T02:02:17;5.20;99.90
22491;DHT22;11412;50.802;4.350;2022-11-20T02:04:43;5.20;99.90
22491;DHT22;11412;50.802;4.350;2022-11-20T02:07:09;5.20;99.90
22491;DHT22;11412;50.802;4.350;2022-11-20T02:09:35;5.10;99.90
22491;DHT22;11412;50.802;4.350;2022-11-20T02:12:01;5.20;99.90
22491;DHT22;11412;50.802;4.350;2022-11-20T02:14:28;5.20;99.90
22491;DHT22;11412;50.802;4.350;2022-11-20T02:16:54;5.20;99.90
22491;DHT22;11412;50.802;4.350;2022-11-20T02:19:27;5.20;99.90
22491;DHT22;11412;50.802;4.350;2022-11-20T02:22:04;5.10;99.90
22491;DHT22;11412;50.802;4.350;2022-11-20T02:24:31;5.10;99.90
22491;DHT22;11412;50.802;4.350;2022-11-20T02:27:03;5.10;99.90
22491;DHT22;11412;50.802;4.350;2022-11-20T02:29:41;5.10;99.90
22491;DHT22;11412;50.802;4.350;2022-11-20T02:32:20;5.10;99.90
22491;DHT22;11412;50.802;4.350;2022-11-20T02:34:46;5.00;99.90
22491;DHT22;11412;50.802;4.350;2022-11-20T02:37:12;5.00;99.90
22491;DHT22;11412;50.802;4.350;2022-11-20T02:39:39;5.10;99.90
22491;DHT22;11412;50.802;4.350;2022-11-20T02:42:05;5.10;99.90
22491;DHT22;11412;50.802;4.350;2022-11-20T02:44:31;5.10;99.90
22491;DHT22;11412;50.802;4.350;2022-11-20T02:46:58;5.10;99.90
22491;DHT22;11412;50.802;4.350;2022-11-20T02:49:24;5.10;99.90
22491;DHT22;11412;50.802;4.350;2022-11-20T02:51:50;5.20;99.90
22491;DHT22;11412;50.802;4.350;2022-11-20T02:54:15;5.10;99.90
22491;DHT22;11412;50.802;4.350;2022-11-20T02:56:41;5.00;99.90
22491;DHT22;11412;50.802;4.350;2022-11-20T02:59:07;5.00;99.90
22491;DHT22;11412;50.802;4.350;2022-11-20T03:01:32;5.10;99.90
22491;DHT22;11412;50.802;4.350;2022-11-20T03:03:58;5.10;99.90
22491;DHT22;11412;50.802;4.350;2022-11-20T03:06:24;5.20;99.90
22491;DHT22;11412;50.802;4.350;2022-11-20T03:08:49;5.10;99.90
22491;DHT22;11412;50.802;4.350;2022-11-20T03:11:15;5.10;99.90
22491;DHT22;11412;50.802;4.350;2022-11-20T03:13:41;5.00;99.90
22491;DHT22;11412;50.802;4.350;2022-11-20T03:16:12;5.00;99.90
22491;DHT22;11412;50.802;4.350;2022-11-20T03:18:38;5.10;99.90
22491;DHT22;11412;50.802;4.350;2022-11-20T03:21:05;5.20;99.90
22491;DHT22;11412;50.802;4.350;2022-11-20T03:23:31;5.20;99.90
22491;DHT22;11412;50.802;4.350;2022-11-20T03:26:19;5.20;99.90
22491;DHT22;11412;50.802;4.350;2022-11-20T03:29:04;5.30;99.90
22491;DHT22;11412;50.802;4.350;2022-11-20T03:31:35;5.30;99.90
22491;DHT22;11412;50.802;4.350;2022-11-20T03:34:02;5.20;99.90
22491;DHT22;11412;50.802;4.350;2022-11-20T03:36:29;5.30;99.90
22491;DHT22;11412;50.802;4.350;2022-11-20T03:38:56;5.20;99.90
22491;DHT22;11412;50.802;4.350;2022-11-20T03:41:30;5.30;99.90
22491;DHT22;11412;50.802;4.350;2022-11-20T03:43:58;5.20;99.90
22491;DHT22;11412;50.802;4.350;2022-11-20T03:46:24;5.10;99.90
22491;DHT22;11412;50.802;4.350;2022-11-20T03:48:51;5.10;99.90
22491;DHT22;11412;50.802;4.350;2022-11-20T03:53:45;5.20;99.90
22491;DHT22;11412;50.802;4.350;2022-11-20T03:56:13;5.20;99.90
22491;DHT22;11412;50.802;4.350;2022-11-20T03:58:41;5.20;99.90
22491;DHT22;11412;50.802;4.350;2022-11-20T04:03:36;5.20;99.90
22491;DHT22;11412;50.802;4.350;2022-11-20T04:06:11;5.20;99.90
22491;DHT22;11412;50.802;4.350;2022-11-20T04:08:37;5.20;99.90
22491;DHT22;11412;50.802;4.350;2022-11-20T04:13:36;5.20;99.90
22491;DHT22;11412;50.802;4.350;2022-11-20T04:16:02;5.40;99.90
22491;DHT22;11412;50.802;4.350;2022-11-20T04:18:27;5.30;99.90
22491;DHT22;11412;50.802;4.350;2022-11-20T04:20:53;5.30;99.90
22491;DHT22;11412;50.802;4.350;2022-11-20T04:23:19;5.20;99.90
22491;DHT22;11412;50.802;4.350;2022-11-20T04:25:44;5.30;99.90
22491;DHT22;11412;50.802;4.350;2022-11-20T04:28:10;5.50;99.90
22491;DHT22;11412;50.802;4.350;2022-11-20T04:30:35;5.50;99.90
22491;DHT22;11412;50.802;4.350;2022-11-20T04:33:01;5.50;99.90
22491;DHT22;11412;50.802;4.350;2022-11-20T04:35:27;5.40;99.90
22491;DHT22;11412;50.802;4.350;2022-11-20T04:37:52;5.40;99.90
22491;DHT22;11412;50.802;4.350;2022-11-20T04:40:18;5.50;99.90
22491;DHT22;11412;50.802;4.350;2022-11-20T04:42:43;5.40;99.90
22491;DHT22;11412;50.802;4.350;2022-11-20T04:45:09;5.50;99.90
22491;DHT22;11412;50.802;4.350;2022-11-20T04:47:35;5.40;99.90
22491;DHT22;11412;50.802;4.350;2022-11-20T04:50:01;5.60;99.90
22491;DHT22;11412;50.802;4.350;2022-11-20T04:52:27;6.00;99.90
22491;DHT22;11412;50.802;4.350;2022-11-20T04:54:52;6.00;99.90
22491;DHT22;11412;50.802;4.350;2022-11-20T04:57:19;6.00;99.90
22491;DHT22;11412;50.802;4.350;2022-11-20T04:59:44;5.80;99.90
22491;DHT22;11412;50.802;4.350;2022-11-20T05:02:10;5.60;99.90
22491;DHT22;11412;50.802;4.350;2022-11-20T05:04:36;5.50;99.90
22491;DHT22;11412;50.802;4.350;2022-11-20T05:07:02;5.40;99.90
22491;DHT22;11412;50.802;4.350;2022-11-20T05:09:28;5.30;99.90
22491;DHT22;11412;50.802;4.350;2022-11-20T05:11:53;5.40;99.90
22491;DHT22;11412;50.802;4.350;2022-11-20T05:14:19;5.30;99.90
22491;DHT22;11412;50.802;4.350;2022-11-20T05:16:44;5.30;99.90
22491;DHT22;11412;50.802;4.350;2022-11-20T05:19:10;5.30;99.90
22491;DHT22;11412;50.802;4.350;2022-11-20T05:21:36;5.30;99.90
22491;DHT22;11412;50.802;4.350;2022-11-20T05:24:01;5.40;99.90
22491;DHT22;11412;50.802;4.350;2022-11-20T05:26:27;5.60;99.90
22491;DHT22;11412;50.802;4.350;2022-11-20T05:28:53;5.50;99.90
22491;DHT22;11412;50.802;4.350;2022-11-20T05:31:21;5.50;99.90
22491;DHT22;11412;50.802;4.350;2022-11-20T05:33:47;5.50;99.90
22491;DHT22;11412;50.802;4.350;2022-11-20T05:36:14;5.70;99.90
22491;DHT22;11412;50.802;4.350;2022-11-20T05:38:40;5.60;99.90
22491;DHT22;11412;50.802;4.350;2022-11-20T05:41:14;5.70;99.90
22491;DHT22;11412;50.802;4.350;2022-11-20T05:43:42;5.90;99.90
22491;DHT22;11412;50.802;4.350;2022-11-20T05:46:09;5.80;99.90
22491;DHT22;11412;50.802;4.350;2022-11-20T05:48:36;5.70;99.90
22491;DHT22;11412;50.802;4.350;2022-11-20T05:51:04;5.60;99.90
22491;DHT22;11412;50.802;4.350;2022-11-20T05:53:32;5.50;99.90
22491;DHT22;11412;50.802;4.350;2022-11-20T05:56:07;5.60;99.90
22491;DHT22;11412;50.802;4.350;2022-11-20T05:58:32;5.50;99.90
22491;DHT22;11412;50.802;4.350;2022-11-20T06:01:13;5.70;99.90
22491;DHT22;11412;50.802;4.350;2022-11-20T06:03:40;6.00;99.90
22491;DHT22;11412;50.802;4.350;2022-11-20T06:06:08;5.90;99.90
22491;DHT22;11412;50.802;4.350;2022-11-20T06:08:34;5.80;99.90
22491;DHT22;11412;50.802;4.350;2022-11-20T06:11:04;5.80;99.90
22491;DHT22;11412;50.802;4.350;2022-11-20T06:13:29;6.00;99.90
22491;DHT22;11412;50.802;4.350;2022-11-20T06:15:55;6.30;99.90
22491;DHT22;11412;50.802;4.350;2022-11-20T06:18:21;6.20;99.90
22491;DHT22;11412;50.802;4.350;2022-11-20T06:20:46;6.10;99.90
22491;DHT22;11412;50.802;4.350;2022-11-20T06:23:12;5.90;99.90
22491;DHT22;11412;50.802;4.350;2022-11-20T06:25:40;6.00;99.90
22491;DHT22;11412;50.802;4.350;2022-11-20T06:28:06;6.00;99.90
22491;DHT22;11412;50.802;4.350;2022-11-20T06:30:31;6.00;99.90
22491;DHT22;11412;50.802;4.350;2022-11-20T06:32:57;5.80;99.90
22491;DHT22;11412;50.802;4.350;2022-11-20T06:35:22;5.80;99.90
22491;DHT22;11412;50.802;4.350;2022-11-20T06:37:48;5.80;99.90
22491;DHT22;11412;50.802;4.350;2022-11-20T06:40:14;5.80;99.90
22491;DHT22;11412;50.802;4.350;2022-11-20T06:42:39;5.80;99.90
22491;DHT22;11412;50.802;4.350;2022-11-20T06:45:05;5.70;99.90
22491;DHT22;11412;50.802;4.350;2022-11-20T06:47:31;5.80;99.90
22491;DHT22;11412;50.802;4.350;2022-11-20T06:49:56;6.10;99.90
22491;DHT22;11412;50.802;4.350;2022-11-20T06:52:22;6.10;99.90
22491;DHT22;11412;50.802;4.350;2022-11-20T06:54:48;6.00;99.90
22491;DHT22;11412;50.802;4.350;2022-11-20T06:57:13;5.80;99.90
22491;DHT22;11412;50.802;4.350;2022-11-20T06:59:39;5.80;99.90
22491;DHT22;11412;50.802;4.350;2022-11-20T07:02:04;5.80;99.90
22491;DHT22;11412;50.802;4.350;2022-11-20T07:04:30;5.90;99.90
22491;DHT22;11412;50.802;4.350;2022-11-20T07:06:56;5.90;99.90
22491;DHT22;11412;50.802;4.350;2022-11-20T07:09:21;6.00;99.90
22491;DHT22;11412;50.802;4.350;2022-11-20T07:11:47;6.30;99.90
22491;DHT22;11412;50.802;4.350;2022-11-20T07:14:12;6.40;99.90
22491;DHT22;11412;50.802;4.350;2022-11-20T07:16:38;6.30;99.90
22491;DHT22;11412;50.802;4.350;2022-11-20T07:19:04;6.20;99.90
22491;DHT22;11412;50.802;4.350;2022-11-20T07:21:29;6.30;99.90
22491;DHT22;11412;50.802;4.350;2022-11-20T07:23:55;6.20;99.90
22491;DHT22;11412;50.802;4.350;2022-11-20T07:26:20;6.40;99.90
22491;DHT22;11412;50.802;4.350;2022-11-20T07:28:46;6.30;99.90
22491;DHT22;11412;50.802;4.350;2022-11-20T07:31:12;6.30;99.90
22491;DHT22;11412;50.802;4.350;2022-11-20T07:33:38;6.20;99.90
22491;DHT22;11412;50.802;4.350;2022-11-20T07:36:04;6.30;99.90
22491;DHT22;11412;50.802;4.350;2022-11-20T07:38:30;6.40;99.90
22491;DHT22;11412;50.802;4.350;2022-11-20T07:40:58;6.70;99.90
22491;DHT22;11412;50.802;4.350;2022-11-20T07:43:27;6.60;99.90
22491;DHT22;11412;50.802;4.350;2022-11-20T07:45:55;6.40;99.90
22491;DHT22;11412;50.802;4.350;2022-11-20T07:48:23;6.40;99.90
22491;DHT22;11412;50.802;4.350;2022-11-20T07:50:49;6.40;99.90
22491;DHT22;11412;50.802;4.350;2022-11-20T07:53:14;6.40;99.90
22491;DHT22;11412;50.802;4.350;2022-11-20T07:55:46;6.40;99.90
22491;DHT22;11412;50.802;4.350;2022-11-20T07:58:12;6.40;99.90
22491;DHT22;11412;50.802;4.350;2022-11-20T08:00:37;6.40;99.90
22491;DHT22;11412;50.802;4.350;2022-11-20T08:03:04;6.70;99.90
22491;DHT22;11412;50.802;4.350;2022-11-20T08:05:30;6.60;99.90
22491;DHT22;11412;50.802;4.350;2022-11-20T08:07:55;6.60;99.90
22491;DHT22;11412;50.802;4.350;2022-11-20T08:10:21;6.50;99.90
22491;DHT22;11412;50.802;4.350;2022-11-20T08:12:48;6.60;99.90
22491;DHT22;11412;50.802;4.350;2022-11-20T08:15:33;6.80;99.90
22491;DHT22;11412;50.802;4.350;2022-11-20T08:18:04;6.60;99.90
22491;DHT22;11412;50.802;4.350;2022-11-20T08:20:30;6.60;99.90
22491;DHT22;11412;50.802;4.350;2022-11-20T08:23:04;6.60;99.90
22491;DHT22;11412;50.802;4.350;2022-11-20T08:25:31;6.80;99.90
22491;DHT22;11412;50.802;4.350;2022-11-20T08:28:01;6.80;99.90
22491;DHT22;11412;50.802;4.350;2022-11-20T08:30:28;6.90;99.90
22491;DHT22;11412;50.802;4.350;2022-11-20T08:32:54;7.10;99.90
22491;DHT22;11412;50.802;4.350;2022-11-20T08:35:23;7.20;99.90
22491;DHT22;11412;50.802;4.350;2022-11-20T08:37:49;7.40;99.90
22491;DHT22;11412;50.802;4.350;2022-11-20T08:40:15;7.20;99.90
22491;DHT22;11412;50.802;4.350;2022-11-20T08:42:50;7.20;99.90
22491;DHT22;11412;50.802;4.350;2022-11-20T08:45:17;7.10;99.90
22491;DHT22;11412;50.802;4.350;2022-11-20T08:47:44;7.10;99.90
22491;DHT22;11412;50.802;4.350;2022-11-20T08:50:11;7.20;99.90
22491;DHT22;11412;50.802;4.350;2022-11-20T08:52:37;7.30;99.90
22491;DHT22;11412;50.802;4.350;2022-11-20T08:55:03;7.40;99.90
22491;DHT22;11412;50.802;4.350;2022-11-20T08:57:32;7.40;99.90
22491;DHT22;11412;50.802;4.350;2022-11-20T08:59:58;7.30;99.90
22491;DHT22;11412;50.802;4.350;2022-11-20T09:02:24;7.40;99.90
22491;DHT22;11412;50.802;4.350;2022-11-20T09:04:49;7.40;99.90
22491;DHT22;11412;50.802;4.350;2022-11-20T09:07:15;7.60;99.90
22491;DHT22;11412;50.802;4.350;2022-11-20T09:09:41;7.80;99.90
22491;DHT22;11412;50.802;4.350;2022-11-20T09:12:06;7.60;99.90
22491;DHT22;11412;50.802;4.350;2022-11-20T09:14:32;7.50;99.90
22491;DHT22;11412;50.802;4.350;2022-11-20T09:16:59;7.70;99.90
22491;DHT22;11412;50.802;4.350;2022-11-20T09:19:25;7.70;99.90
22491;DHT22;11412;50.802;4.350;2022-11-20T09:21:51;7.80;99.90
22491;DHT22;11412;50.802;4.350;2022-11-20T09:24:17;8.00;99.90
22491;DHT22;11412;50.802;4.350;2022-11-20T09:26:42;8.30;99.90
22491;DHT22;11412;50.802;4.350;2022-11-20T09:29:08;8.00;99.90
22491;DHT22;11412;50.802;4.350;2022-11-20T09:31:34;7.90;99.90
22491;DHT22;11412;50.802;4.350;2022-11-20T09:33:59;7.80;99.90
22491;DHT22;11412;50.802;4.350;2022-11-20T09:36:25;7.80;99.90
22491;DHT22;11412;50.802;4.350;2022-11-20T09:38:51;8.10;99.90
22491;DHT22;11412;50.802;4.350;2022-11-20T09:42:03;8.40;99.90
22491;DHT22;11412;50.802;4.350;2022-11-20T09:47:13;8.30;99.90
22491;DHT22;11412;50.802;4.350;2022-11-20T09:55:12;8.90;99.90
22491;DHT22;11412;50.802;4.350;2022-11-20T09:57:42;8.80;99.90
22491;DHT22;11412;50.802;4.350;2022-11-20T10:00:13;8.90;99.90
22491;DHT22;11412;50.802;4.350;2022-11-20T10:02:50;8.90;99.90
22491;DHT22;11412;50.802;4.350;2022-11-20T10:08:13;8.80;99.90
22491;DHT22;11412;50.802;4.350;2022-11-20T10:11:05;8.90;99.90
22491;DHT22;11412;50.802;4.350;2022-11-20T10:19:09;9.60;99.90
22491;DHT22;11412;50.802;4.350;2022-11-20T10:30:07;9.60;99.90
22491;DHT22;11412;50.802;4.350;2022-11-20T10:32:46;9.80;99.90
22491;DHT22;11412;50.802;4.350;2022-11-20T10:35:23;9.90;99.90
22491;DHT22;11412;50.802;4.350;2022-11-20T10:38:02;10.00;99.90
22491;DHT22;11412;50.802;4.350;2022-11-20T10:43:11;10.10;99.90
22491;DHT22;11412;50.802;4.350;2022-11-20T10:48:25;10.10;99.90
22491;DHT22;11412;50.802;4.350;2022-11-20T10:53:42;10.10;99.90
22491;DHT22;11412;50.802;4.350;2022-11-20T10:56:52;10.30;99.90
22491;DHT22;11412;50.802;4.350;2022-11-20T11:00:07;10.10;99.90
22491;DHT22;11412;50.802;4.350;2022-11-20T11:07:51;10.30;99.90
22491;DHT22;11412;50.802;4.350;2022-11-20T11:10:29;10.20;99.90
22491;DHT22;11412;50.802;4.350;2022-11-20T11:12:57;10.30;99.90
22491;DHT22;11412;50.802;4.350;2022-11-20T11:15:38;10.10;99.90
22491;DHT22;11412;50.802;4.350;2022-11-20T11:18:04;10.00;99.90
22491;DHT22;11412;50.802;4.350;2022-11-20T11:20:30;10.00;99.90
22491;DHT22;11412;50.802;4.350;2022-11-20T11:22:58;10.10;99.90
22491;DHT22;11412;50.802;4.350;2022-11-20T11:25:29;9.90;99.90
22491;DHT22;11412;50.802;4.350;2022-11-20T11:27:58;9.90;99.90
22491;DHT22;11412;50.802;4.350;2022-11-20T11:30:26;10.00;99.90
22491;DHT22;11412;50.802;4.350;2022-11-20T11:33:03;10.10;99.90
22491;DHT22;11412;50.802;4.350;2022-11-20T11:35:29;9.90;99.90
22491;DHT22;11412;50.802;4.350;2022-11-20T11:38:04;9.70;99.90
22491;DHT22;11412;50.802;4.350;2022-11-20T11:40:32;9.60;99.90
22491;DHT22;11412;50.802;4.350;2022-11-20T11:43:05;9.60;99.90
22491;DHT22;11412;50.802;4.350;2022-11-20T11:45:55;9.80;99.90
22491;DHT22;11412;50.802;4.350;2022-11-20T11:48:21;9.80;99.90
22491;DHT22;11412;50.802;4.350;2022-11-20T11:50:50;10.10;99.90
22491;DHT22;11412;50.802;4.350;2022-11-20T11:53:19;9.90;99.90
22491;DHT22;11412;50.802;4.350;2022-11-20T11:55:47;9.80;99.90
22491;DHT22;11412;50.802;4.350;2022-11-20T11:58:45;9.60;99.90
22491;DHT22;11412;50.802;4.350;2022-11-20T12:01:35;9.50;99.90
22491;DHT22;11412;50.802;4.350;2022-11-20T12:07:41;9.30;99.90
22491;DHT22;11412;50.802;4.350;2022-11-20T12:10:17;9.40;99.90
22491;DHT22;11412;50.802;4.350;2022-11-20T12:12:45;9.40;99.90
22491;DHT22;11412;50.802;4.350;2022-11-20T12:15:23;9.80;99.90
22491;DHT22;11412;50.802;4.350;2022-11-20T12:17:51;9.50;99.90
22491;DHT22;11412;50.802;4.350;2022-11-20T12:20:17;9.40;99.90
22491;DHT22;11412;50.802;4.350;2022-11-20T12:23:03;9.40;99.90
22491;DHT22;11412;50.802;4.350;2022-11-20T12:25:34;9.40;99.90
22491;DHT22;11412;50.802;4.350;2022-11-20T12:28:13;9.20;99.90
22491;DHT22;11412;50.802;4.350;2022-11-20T12:30:53;9.10;99.90
22491;DHT22;11412;50.802;4.350;2022-11-20T12:33:24;9.10;99.90
22491;DHT22;11412;50.802;4.350;2022-11-20T12:42:23;9.20;99.90
22491;DHT22;11412;50.802;4.350;2022-11-20T12:53:40;9.50;99.90
22491;DHT22;11412;50.802;4.350;2022-11-20T13:02:09;9.50;99.90
22491;DHT22;11412;50.802;4.350;2022-11-20T13:07:36;9.60;99.90
22491;DHT22;11412;50.802;4.350;2022-11-20T13:10:03;9.70;99.90
22491;DHT22;11412;50.802;4.350;2022-11-20T13:12:46;9.50;99.90
22491;DHT22;11412;50.802;4.350;2022-11-20T13:18:09;9.30;99.90
22491;DHT22;11412;50.802;4.350;2022-11-20T13:20:36;9.20;99.90
22491;DHT22;11412;50.802;4.350;2022-11-20T13:23:06;9.30;99.90
22491;DHT22;11412;50.802;4.350;2022-11-20T13:25:37;9.30;99.90
22491;DHT22;11412;50.802;4.350;2022-11-20T13:30:36;9.50;99.90
22491;DHT22;11412;50.802;4.350;2022-11-20T13:33:21;9.50;99.90
22491;DHT22;11412;50.802;4.350;2022-11-20T13:36:05;9.30;99.90
22491;DHT22;11412;50.802;4.350;2022-11-20T13:38:51;9.20;99.90
22491;DHT22;11412;50.802;4.350;2022-11-20T13:43:57;9.20;99.90
22491;DHT22;11412;50.802;4.350;2022-11-20T13:46:23;9.20;99.90
22491;DHT22;11412;50.802;4.350;2022-11-20T13:48:51;9.30;99.90
22491;DHT22;11412;50.802;4.350;2022-11-20T13:51:44;9.10;99.90
22491;DHT22;11412;50.802;4.350;2022-11-20T13:54:38;9.20;99.90
22491;DHT22;11412;50.802;4.350;2022-11-20T14:00:21;9.30;99.90
22491;DHT22;11412;50.802;4.350;2022-11-20T14:05:37;9.10;99.90
22491;DHT22;11412;50.802;4.350;2022-11-20T14:08:06;9.30;99.90
22491;DHT22;11412;50.802;4.350;2022-11-20T14:10:34;9.40;99.90
22491;DHT22;11412;50.802;4.350;2022-11-20T14:13:12;9.40;99.90
22491;DHT22;11412;50.802;4.350;2022-11-20T14:15:40;9.30;99.90
22491;DHT22;11412;50.802;4.350;2022-11-20T14:18:19;9.20;99.90
22491;DHT22;11412;50.802;4.350;2022-11-20T14:20:45;9.20;99.90
22491;DHT22;11412;50.802;4.350;2022-11-20T14:23:11;9.10;99.90
22491;DHT22;11412;50.802;4.350;2022-11-20T14:25:41;9.10;99.90
22491;DHT22;11412;50.802;4.350;2022-11-20T14:28:11;9.20;99.90
22491;DHT22;11412;50.802;4.350;2022-11-20T14:30:47;9.10;99.90
22491;DHT22;11412;50.802;4.350;2022-11-20T14:33:14;9.20;99.90
22491;DHT22;11412;50.802;4.350;2022-11-20T14:35:51;9.30;99.90
22491;DHT22;11412;50.802;4.350;2022-11-20T14:38:22;9.20;99.90
22491;DHT22;11412;50.802;4.350;2022-11-20T14:40:48;9.20;99.90
22491;DHT22;11412;50.802;4.350;2022-11-20T14:46:02;9.20;99.90
22491;DHT22;11412;50.802;4.350;2022-11-20T14:48:38;9.10;99.90
22491;DHT22;11412;50.802;4.350;2022-11-20T14:51:04;9.30;99.90
22491;DHT22;11412;50.802;4.350;2022-11-20T14:53:30;9.30;99.90
22491;DHT22;11412;50.802;4.350;2022-11-20T14:55:58;9.10;99.90
22491;DHT22;11412;50.802;4.350;2022-11-20T14:58:27;9.30;99.90
22491;DHT22;11412;50.802;4.350;2022-11-20T15:01:05;9.10;99.90
22491;DHT22;11412;50.802;4.350;2022-11-20T15:03:35;9.20;99.90
22491;DHT22;11412;50.802;4.350;2022-11-20T15:06:01;9.50;99.90
22491;DHT22;11412;50.802;4.350;2022-11-20T15:08:27;9.20;99.90
22491;DHT22;11412;50.802;4.350;2022-11-20T15:10:54;9.20;99.90
22491;DHT22;11412;50.802;4.350;2022-11-20T15:13:36;9.20;99.90
22491;DHT22;11412;50.802;4.350;2022-11-20T15:16:03;9.30;99.90
22491;DHT22;11412;50.802;4.350;2022-11-20T15:18:36;9.20;99.90
22491;DHT22;11412;50.802;4.350;2022-11-20T15:21:10;9.20;99.90
22491;DHT22;11412;50.802;4.350;2022-11-20T15:23:36;9.40;99.90
22491;DHT22;11412;50.802;4.350;2022-11-20T15:26:01;9.30;99.90
22491;DHT22;11412;50.802;4.350;2022-11-20T15:28:35;9.50;99.90
22491;DHT22;11412;50.802;4.350;2022-11-20T15:31:03;9.40;99.90
22491;DHT22;11412;50.802;4.350;2022-11-20T15:33:29;9.20;99.90
22491;DHT22;11412;50.802;4.350;2022-11-20T15:35:55;9.20;99.90
22491;DHT22;11412;50.802;4.350;2022-11-20T15:38:21;9.50;99.90
22491;DHT22;11412;50.802;4.350;2022-11-20T15:40:46;9.40;99.90
22491;DHT22;11412;50.802;4.350;2022-11-20T15:43:12;9.40;99.90
22491;DHT22;11412;50.802;4.350;2022-11-20T15:45:44;9.40;99.90
22491;DHT22;11412;50.802;4.350;2022-11-20T15:53:27;9.30;99.90
22491;DHT22;11412;50.802;4.350;2022-11-20T15:55:53;9.30;99.90
22491;DHT22;11412;50.802;4.350;2022-11-20T15:58:18;9.40;99.90
22491;DHT22;11412;50.802;4.350;2022-11-20T16:00:45;9.40;99.90
22491;DHT22;11412;50.802;4.350;2022-11-20T16:03:12;9.60;99.90
22491;DHT22;11412;50.802;4.350;2022-11-20T16:05:38;9.50;99.90
22491;DHT22;11412;50.802;4.350;2022-11-20T16:08:04;9.30;99.90
22491;DHT22;11412;50.802;4.350;2022-11-20T16:10:30;9.30;99.90
22491;DHT22;11412;50.802;4.350;2022-11-20T16:12:55;9.30;99.90
22491;DHT22;11412;50.802;4.350;2022-11-20T16:15:39;9.30;99.90
22491;DHT22;11412;50.802;4.350;2022-11-20T16:18:16;9.30;99.90
22491;DHT22;11412;50.802;4.350;2022-11-20T16:20:43;9.30;99.90
22491;DHT22;11412;50.802;4.350;2022-11-20T16:23:09;9.30;99.90
22491;DHT22;11412;50.802;4.350;2022-11-20T16:25:34;9.30;99.90
22491;DHT22;11412;50.802;4.350;2022-11-20T16:28:00;9.30;99.90
22491;DHT22;11412;50.802;4.350;2022-11-20T16:30:26;9.40;99.90
22491;DHT22;11412;50.802;4.350;2022-11-20T16:32:52;9.40;99.90
22491;DHT22;11412;50.802;4.350;2022-11-20T16:35:18;9.30;99.90
22491;DHT22;11412;50.802;4.350;2022-11-20T16:37:43;9.20;99.90
22491;DHT22;11412;50.802;4.350;2022-11-20T16:40:10;9.20;99.90
22491;DHT22;11412;50.802;4.350;2022-11-20T16:42:36;9.10;99.90
22491;DHT22;11412;50.802;4.350;2022-11-20T16:45:03;9.20;99.90
22491;DHT22;11412;50.802;4.350;2022-11-20T16:47:38;9.10;99.90
22491;DHT22;11412;50.802;4.350;2022-11-20T16:50:05;9.00;99.90
22491;DHT22;11412;50.802;4.350;2022-11-20T16:52:31;9.00;99.90
22491;DHT22;11412;50.802;4.350;2022-11-20T16:54:57;9.10;99.90
22491;DHT22;11412;50.802;4.350;2022-11-20T16:57:23;9.00;99.90
22491;DHT22;11412;50.802;4.350;2022-11-20T16:59:49;9.10;99.90
22491;DHT22;11412;50.802;4.350;2022-11-20T17:02:15;9.00;99.90
22491;DHT22;11412;50.802;4.350;2022-11-20T17:04:41;9.00;99.90
22491;DHT22;11412;50.802;4.350;2022-11-20T17:07:07;9.00;99.90
22491;DHT22;11412;50.802;4.350;2022-11-20T17:09:33;9.00;99.90
22491;DHT22;11412;50.802;4.350;2022-11-20T17:11:59;9.10;99.90
22491;DHT22;11412;50.802;4.350;2022-11-20T17:14:24;9.10;99.90
22491;DHT22;11412;50.802;4.350;2022-11-20T17:16:50;9.00;99.90
22491;DHT22;11412;50.802;4.350;2022-11-20T17:19:16;9.00;99.90
22491;DHT22;11412;50.802;4.350;2022-11-20T17:21:42;8.90;99.90
22491;DHT22;11412;50.802;4.350;2022-11-20T17:24:10;9.00;99.90
22491;DHT22;11412;50.802;4.350;2022-11-20T17:26:37;9.00;99.90
22491;DHT22;11412;50.802;4.350;2022-11-20T17:29:04;8.90;99.90
22491;DHT22;11412;50.802;4.350;2022-11-20T17:31:32;9.00;99.90
22491;DHT22;11412;50.802;4.350;2022-11-20T17:33:59;9.10;99.90
22491;DHT22;11412;50.802;4.350;2022-11-20T17:36:25;9.00;99.90